createdAt,value
2017-02-07T00:00:35.000Z,0
2017-02-07T00:01:35.037Z,0
2017-02-07T00:02:35.205Z,0
2017-02-07T00:03:34.977Z,0
2017-02-07T00:04:35.080Z,0
2017-02-07T00:05:35.102Z,0
2017-02-07T00:06:35.134Z,0
2017-02-07T00:07:34.994Z,0
2017-02-07T00:08:34.971Z,0
2017-02-07T00:09:35.079Z,0
2017-02-07T00:10:34.998Z,0
2017-02-07T00:11:34.993Z,0
2017-02-07T00:12:34.980Z,0
2017-02-07T00:13:35.003Z,0
2017-02-07T00:14:35.059Z,0
2017-02-07T00:15:35.029Z,0
2017-02-07T00:16:34.989Z,0
2017-02-07T00:17:35.009Z,0
2017-02-07T00:18:34.970Z,0
2017-02-07T00:19:34.973Z,0
2017-02-07T00:20:35.029Z,0
2017-02-07T00:21:35.032Z,0
2017-02-07T00:22:35.007Z,0
2017-02-07T00:23:35.001Z,0
2017-02-07T00:24:34.987Z,0
2017-02-07T00:25:34.969Z,0
2017-02-07T00:26:34.991Z,0
2017-02-07T00:27:34.997Z,0
2017-02-07T00:28:35.029Z,0
2017-02-07T00:29:35.001Z,0
2017-02-07T00:30:35.010Z,0
2017-02-07T00:31:35.007Z,0
2017-02-07T00:32:34.971Z,0
2017-02-07T00:33:35.021Z,0
2017-02-07T00:34:34.996Z,0
2017-02-07T00:35:34.991Z,0
2017-02-07T00:36:35.011Z,0
2017-02-07T00:37:34.991Z,0
2017-02-07T00:38:35.022Z,0
2017-02-07T00:39:34.992Z,0
2017-02-07T00:40:35.017Z,0
2017-02-07T00:41:35.055Z,0
2017-02-07T00:42:35.009Z,0
2017-02-07T00:43:35.036Z,0
2017-02-07T00:44:35.020Z,0
2017-02-07T00:45:35.024Z,0
2017-02-07T00:46:35.002Z,0
2017-02-07T00:47:35.028Z,0
2017-02-07T00:48:34.990Z,0
2017-02-07T00:49:34.995Z,0
2017-02-07T00:50:35.022Z,0
2017-02-07T00:51:35.002Z,0
2017-02-07T00:52:35.023Z,0
2017-02-07T00:53:35.011Z,0
2017-02-07T00:54:35.013Z,0
2017-02-07T00:55:34.999Z,0
2017-02-07T00:56:35.015Z,0
2017-02-07T00:57:34.999Z,0
2017-02-07T00:58:35.013Z,0
2017-02-07T00:59:35.024Z,0
2017-02-07T01:00:35.026Z,0
2017-02-07T01:01:35.008Z,0
2017-02-07T01:02:35.037Z,0
2017-02-07T01:03:35.010Z,0
2017-02-07T01:04:35.041Z,0
2017-02-07T01:05:35.026Z,0
2017-02-07T01:06:35.125Z,0
2017-02-07T01:07:35.028Z,0
2017-02-07T01:08:35.015Z,0
2017-02-07T01:09:34.998Z,0
2017-02-07T01:10:35.027Z,0
2017-02-07T01:11:35.026Z,0
2017-02-07T01:12:35.033Z,0
2017-02-07T01:13:35.034Z,0
2017-02-07T01:14:35.040Z,0
2017-02-07T01:15:35.026Z,0
2017-02-07T01:16:35.025Z,0
2017-02-07T01:17:35.040Z,0
2017-02-07T01:18:35.062Z,0
2017-02-07T01:19:35.026Z,0
2017-02-07T01:20:35.047Z,0
2017-02-07T01:21:35.045Z,0
2017-02-07T01:22:35.037Z,0
2017-02-07T01:23:35.035Z,0
2017-02-07T01:24:35.085Z,0
2017-02-07T01:25:35.046Z,0
2017-02-07T01:26:35.032Z,0
2017-02-07T01:27:35.033Z,0
2017-02-07T01:28:35.056Z,0
2017-02-07T01:29:35.109Z,0
2017-02-07T01:30:35.058Z,0
2017-02-07T01:31:35.055Z,0
2017-02-07T01:32:35.050Z,0
2017-02-07T01:33:35.073Z,0
2017-02-07T01:34:35.023Z,0
2017-02-07T01:35:35.029Z,0
2017-02-07T01:36:35.045Z,0
2017-02-07T01:37:35.062Z,0
2017-02-07T01:38:35.039Z,0
2017-02-07T01:39:35.107Z,0
2017-02-07T01:40:35.036Z,0
2017-02-07T01:41:35.025Z,0
2017-02-07T01:42:35.045Z,0
2017-02-07T01:43:35.053Z,0
2017-02-07T01:44:35.065Z,0
2017-02-07T01:45:35.046Z,0
2017-02-07T01:46:35.052Z,0
2017-02-07T01:47:35.065Z,0
2017-02-07T01:48:35.085Z,0
2017-02-07T01:49:35.049Z,0
2017-02-07T01:50:35.049Z,0
2017-02-07T01:51:35.055Z,0
2017-02-07T01:52:35.069Z,0
2017-02-07T01:53:35.074Z,0
2017-02-07T01:54:35.054Z,0
2017-02-07T01:55:35.071Z,0
2017-02-07T01:56:35.085Z,0
2017-02-07T01:57:35.071Z,0
2017-02-07T01:58:35.057Z,0
2017-02-07T01:59:35.056Z,0
2017-02-07T02:00:35.040Z,0
2017-02-07T02:01:35.080Z,0
2017-02-07T02:02:35.049Z,0
2017-02-07T02:03:35.088Z,0
2017-02-07T02:04:35.068Z,0
2017-02-07T02:05:35.054Z,0
2017-02-07T02:06:35.100Z,0
2017-02-07T02:07:35.084Z,0
2017-02-07T02:08:35.107Z,0
2017-02-07T02:09:35.058Z,0
2017-02-07T02:10:35.068Z,0
2017-02-07T02:11:35.078Z,0
2017-02-07T02:12:35.078Z,0
2017-02-07T02:13:35.063Z,0
2017-02-07T02:14:35.066Z,0
2017-02-07T02:15:35.104Z,0
2017-02-07T02:16:35.095Z,0
2017-02-07T02:17:35.089Z,0
2017-02-07T02:18:35.090Z,0
2017-02-07T02:19:35.060Z,0
2017-02-07T02:20:35.053Z,0
2017-02-07T02:21:35.074Z,0
2017-02-07T02:22:35.077Z,0
2017-02-07T02:23:35.077Z,0
2017-02-07T02:24:35.080Z,0
2017-02-07T02:25:35.087Z,0
2017-02-07T02:26:35.087Z,0
2017-02-07T02:27:35.071Z,0
2017-02-07T02:28:35.056Z,0
2017-02-07T02:29:35.091Z,0
2017-02-07T02:30:35.068Z,0
2017-02-07T02:31:35.090Z,0
2017-02-07T02:32:35.081Z,0
2017-02-07T02:33:35.082Z,0
2017-02-07T02:34:35.090Z,0
2017-02-07T02:35:35.113Z,0
2017-02-07T02:36:35.093Z,0
2017-02-07T02:37:35.101Z,0
2017-02-07T02:38:35.106Z,0
2017-02-07T02:39:35.098Z,0
2017-02-07T02:40:35.103Z,0
2017-02-07T02:41:35.099Z,0
2017-02-07T02:42:35.093Z,0
2017-02-07T02:43:35.068Z,0
2017-02-07T02:44:35.090Z,0
2017-02-07T02:45:35.084Z,0
2017-02-07T02:46:35.112Z,0
2017-02-07T02:47:35.077Z,0
2017-02-07T02:48:35.096Z,0
2017-02-07T02:49:35.109Z,0
2017-02-07T02:50:35.096Z,0
2017-02-07T02:51:35.064Z,0
2017-02-07T02:52:35.103Z,0
2017-02-07T02:53:35.099Z,0
2017-02-07T02:54:35.111Z,0
2017-02-07T02:55:35.106Z,0
2017-02-07T02:56:35.101Z,0
2017-02-07T02:57:35.100Z,0
2017-02-07T02:58:35.095Z,0
2017-02-07T02:59:35.110Z,0
2017-02-07T03:00:35.111Z,0
2017-02-07T03:01:35.143Z,0
2017-02-07T03:02:35.098Z,0
2017-02-07T03:03:35.120Z,0
2017-02-07T03:04:35.116Z,0
2017-02-07T03:05:35.103Z,0
2017-02-07T03:06:35.119Z,0
2017-02-07T03:07:35.111Z,0
2017-02-07T03:08:35.100Z,0
2017-02-07T03:09:35.100Z,0
2017-02-07T03:10:35.120Z,0
2017-02-07T03:11:35.189Z,0
2017-02-07T03:12:35.101Z,0
2017-02-07T03:13:35.103Z,0
2017-02-07T03:14:35.124Z,0
2017-02-07T03:15:35.097Z,0
2017-02-07T03:16:35.111Z,0
2017-02-07T03:17:35.116Z,0
2017-02-07T03:18:35.118Z,0
2017-02-07T03:19:35.100Z,0
2017-02-07T03:20:35.086Z,0
2017-02-07T03:21:35.134Z,0
2017-02-07T03:22:35.119Z,0
2017-02-07T03:23:35.098Z,0
2017-02-07T03:24:35.095Z,0
2017-02-07T03:25:35.112Z,0
2017-02-07T03:26:35.137Z,0
2017-02-07T03:27:35.123Z,0
2017-02-07T03:28:35.114Z,0
2017-02-07T03:29:35.122Z,0
2017-02-07T03:30:35.105Z,0
2017-02-07T03:31:35.123Z,0
2017-02-07T03:32:35.128Z,0
2017-02-07T03:33:35.110Z,0
2017-02-07T03:34:35.098Z,0
2017-02-07T03:35:35.111Z,0
2017-02-07T03:36:35.114Z,0
2017-02-07T03:37:35.144Z,0
2017-02-07T03:38:35.125Z,0
2017-02-07T03:39:35.125Z,0
2017-02-07T03:40:35.125Z,0
2017-02-07T03:41:35.133Z,0
2017-02-07T03:42:35.116Z,0
2017-02-07T03:43:35.120Z,0
2017-02-07T03:44:35.110Z,0
2017-02-07T03:45:35.132Z,0
2017-02-07T03:46:35.121Z,0
2017-02-07T03:47:35.122Z,0
2017-02-07T03:48:35.123Z,0
2017-02-07T03:49:35.121Z,0
2017-02-07T03:50:35.107Z,0
2017-02-07T03:51:35.128Z,0
2017-02-07T03:52:35.126Z,0
2017-02-07T03:53:35.129Z,0
2017-02-07T03:54:35.121Z,0
2017-02-07T03:55:35.136Z,0
2017-02-07T03:56:35.129Z,0
2017-02-07T03:57:35.121Z,0
2017-02-07T03:58:35.132Z,0
2017-02-07T03:59:35.140Z,0
2017-02-07T04:00:35.142Z,0
2017-02-07T04:01:35.179Z,0
2017-02-07T04:02:35.126Z,0
2017-02-07T04:03:35.156Z,0
2017-02-07T04:04:35.121Z,0
2017-02-07T04:05:35.132Z,0
2017-02-07T04:06:35.137Z,0
2017-02-07T04:07:35.144Z,0
2017-02-07T04:08:35.170Z,0
2017-02-07T04:09:35.163Z,0
2017-02-07T04:10:35.145Z,0
2017-02-07T04:11:35.176Z,0
2017-02-07T04:12:35.157Z,0
2017-02-07T04:13:35.144Z,0
2017-02-07T04:14:35.139Z,0
2017-02-07T04:15:35.139Z,0
2017-02-07T04:16:35.197Z,0
2017-02-07T04:17:35.174Z,0
2017-02-07T04:18:35.151Z,0
2017-02-07T04:19:35.169Z,0
2017-02-07T04:20:35.169Z,0
2017-02-07T04:21:35.150Z,0
2017-02-07T04:22:35.145Z,0
2017-02-07T04:23:35.157Z,0
2017-02-07T04:24:35.140Z,0
2017-02-07T04:25:35.159Z,0
2017-02-07T04:26:35.167Z,0
2017-02-07T04:27:35.132Z,0
2017-02-07T04:28:35.168Z,0
2017-02-07T04:29:35.169Z,0
2017-02-07T04:30:35.145Z,0
2017-02-07T04:31:35.182Z,0
2017-02-07T04:32:35.168Z,0
2017-02-07T04:33:35.157Z,0
2017-02-07T04:34:35.155Z,0
2017-02-07T04:35:35.160Z,0
2017-02-07T04:36:35.167Z,0
2017-02-07T04:37:35.164Z,0
2017-02-07T04:38:35.168Z,0
2017-02-07T04:39:35.173Z,0
2017-02-07T04:40:35.177Z,0
2017-02-07T04:41:35.158Z,0
2017-02-07T04:42:35.144Z,0
2017-02-07T04:43:35.163Z,0
2017-02-07T04:44:35.156Z,0
2017-02-07T04:45:35.174Z,0
2017-02-07T04:46:35.172Z,0
2017-02-07T04:47:35.189Z,0
2017-02-07T04:48:35.161Z,0
2017-02-07T04:49:35.180Z,0
2017-02-07T04:50:35.192Z,0
2017-02-07T04:51:35.172Z,0
2017-02-07T04:52:35.170Z,0
2017-02-07T04:53:35.163Z,0
2017-02-07T04:54:35.171Z,0
2017-02-07T04:55:35.176Z,0
2017-02-07T04:56:35.152Z,0
2017-02-07T04:57:35.161Z,0
2017-02-07T04:58:35.181Z,0
2017-02-07T04:59:35.170Z,0
2017-02-07T05:00:35.164Z,0
2017-02-07T05:01:35.182Z,0
2017-02-07T05:02:35.155Z,0
2017-02-07T05:03:35.178Z,0
2017-02-07T05:04:35.177Z,0
2017-02-07T05:05:35.175Z,0
2017-02-07T05:06:35.205Z,0
2017-02-07T05:07:35.182Z,0
2017-02-07T05:08:35.178Z,0
2017-02-07T05:09:35.212Z,0
2017-02-07T05:10:35.191Z,0
2017-02-07T05:11:35.186Z,0
2017-02-07T05:12:35.212Z,0
2017-02-07T05:13:35.189Z,0
2017-02-07T05:14:35.206Z,0
2017-02-07T05:15:35.203Z,0
2017-02-07T05:16:35.205Z,0
2017-02-07T05:17:35.197Z,0
2017-02-07T05:18:35.203Z,0
2017-02-07T05:19:35.184Z,0
2017-02-07T05:20:35.216Z,0
2017-02-07T05:21:35.269Z,0
2017-02-07T05:22:35.435Z,0
2017-02-07T05:23:35.237Z,0
2017-02-07T05:24:35.209Z,0
2017-02-07T05:25:35.206Z,0
2017-02-07T05:26:35.198Z,0
2017-02-07T05:27:35.211Z,0
2017-02-07T05:28:35.196Z,0
2017-02-07T05:29:35.230Z,0
2017-02-07T05:30:35.215Z,0
2017-02-07T05:31:35.200Z,0
2017-02-07T05:32:35.185Z,0
2017-02-07T05:33:35.202Z,0
2017-02-07T05:34:35.243Z,0
2017-02-07T05:35:35.201Z,0
2017-02-07T05:36:35.252Z,0
2017-02-07T05:37:35.219Z,0
2017-02-07T05:38:35.294Z,0
2017-02-07T05:39:35.187Z,0
2017-02-07T05:40:35.224Z,0
2017-02-07T05:41:35.183Z,0
2017-02-07T05:42:35.228Z,0
2017-02-07T05:43:35.212Z,0
2017-02-07T05:44:35.197Z,0
2017-02-07T05:45:35.209Z,0
2017-02-07T05:46:35.219Z,0
2017-02-07T05:47:35.223Z,0
2017-02-07T05:48:35.190Z,0
2017-02-07T05:49:35.195Z,0
2017-02-07T05:50:35.182Z,0
2017-02-07T05:51:35.266Z,0
2017-02-07T05:52:35.189Z,0
2017-02-07T05:53:35.205Z,0
2017-02-07T05:54:35.258Z,0
2017-02-07T05:55:35.204Z,0
2017-02-07T05:56:35.206Z,0
2017-02-07T05:57:35.215Z,0
2017-02-07T05:58:35.223Z,0
2017-02-07T05:59:35.248Z,0
2017-02-07T06:00:35.208Z,0
2017-02-07T06:01:35.244Z,0
2017-02-07T06:02:35.252Z,0
2017-02-07T06:03:35.216Z,0
2017-02-07T06:04:35.219Z,0
2017-02-07T06:05:35.263Z,0
2017-02-07T06:06:35.248Z,0
2017-02-07T06:07:35.212Z,0
2017-02-07T06:08:35.262Z,0
2017-02-07T06:09:35.219Z,0
2017-02-07T06:10:35.225Z,0
2017-02-07T06:11:35.218Z,0
2017-02-07T06:12:35.204Z,0
2017-02-07T06:13:35.234Z,0
2017-02-07T06:14:35.232Z,0
2017-02-07T06:15:35.210Z,0
2017-02-07T06:16:35.335Z,0
2017-02-07T06:17:35.252Z,0
2017-02-07T06:18:35.196Z,0
2017-02-07T06:19:35.237Z,0
2017-02-07T06:20:35.226Z,0
2017-02-07T06:21:35.222Z,0
2017-02-07T06:22:35.243Z,0
2017-02-07T06:23:35.196Z,0
2017-02-07T06:24:35.226Z,0
2017-02-07T06:25:35.235Z,0
2017-02-07T06:26:35.265Z,0
2017-02-07T06:27:35.230Z,0
2017-02-07T06:28:35.206Z,0
2017-02-07T06:29:35.228Z,0
2017-02-07T06:30:35.220Z,0
2017-02-07T06:31:35.240Z,0
2017-02-07T06:32:35.223Z,0
2017-02-07T06:33:35.227Z,0
2017-02-07T06:34:35.227Z,0
2017-02-07T06:35:35.237Z,0
2017-02-07T06:36:35.242Z,0
2017-02-07T06:37:35.230Z,0
2017-02-07T06:38:35.278Z,0
2017-02-07T06:39:35.261Z,0
2017-02-07T06:40:35.245Z,0
2017-02-07T06:41:35.282Z,0
2017-02-07T06:42:35.246Z,0
2017-02-07T06:43:35.265Z,0
2017-02-07T06:44:35.233Z,0
2017-02-07T06:45:35.259Z,0
2017-02-07T06:46:35.268Z,0
2017-02-07T06:47:35.248Z,0
2017-02-07T06:48:35.246Z,0
2017-02-07T06:49:35.262Z,0
2017-02-07T06:50:35.252Z,0
2017-02-07T06:51:35.259Z,0
2017-02-07T06:52:35.266Z,0
2017-02-07T06:53:35.244Z,0
2017-02-07T06:54:35.242Z,0
2017-02-07T06:55:35.259Z,0
2017-02-07T06:56:35.276Z,0
2017-02-07T06:57:35.260Z,0
2017-02-07T06:58:35.306Z,0
2017-02-07T06:59:35.270Z,0
2017-02-07T07:00:35.253Z,0
2017-02-07T07:01:35.243Z,0
2017-02-07T07:02:35.243Z,0
2017-02-07T07:03:35.266Z,0
2017-02-07T07:04:35.261Z,0
2017-02-07T07:05:35.252Z,0
2017-02-07T07:06:35.279Z,0
2017-02-07T07:07:35.277Z,5
2017-02-07T07:08:35.253Z,5
2017-02-07T07:09:35.251Z,5
2017-02-07T07:10:35.251Z,5
2017-02-07T07:11:35.267Z,5
2017-02-07T07:12:35.244Z,5
2017-02-07T07:13:35.256Z,5
2017-02-07T07:14:35.266Z,5
2017-02-07T07:15:35.247Z,10
2017-02-07T07:16:35.277Z,10
2017-02-07T07:17:35.263Z,10
2017-02-07T07:18:35.259Z,10
2017-02-07T07:19:35.254Z,10
2017-02-07T07:20:35.274Z,10
2017-02-07T07:21:35.275Z,10
2017-02-07T07:22:35.255Z,10
2017-02-07T07:23:35.270Z,10
2017-02-07T07:24:35.266Z,10
2017-02-07T07:25:35.295Z,10
2017-02-07T07:26:35.313Z,10
2017-02-07T07:27:35.295Z,15
2017-02-07T07:28:35.272Z,15
2017-02-07T07:29:35.270Z,15
2017-02-07T07:30:35.288Z,15
2017-02-07T07:31:35.292Z,15
2017-02-07T07:32:35.267Z,15
2017-02-07T07:33:35.293Z,15
2017-02-07T07:34:35.322Z,15
2017-02-07T07:35:35.322Z,15
2017-02-07T07:36:35.314Z,15
2017-02-07T07:37:35.314Z,15
2017-02-07T07:38:35.311Z,20
2017-02-07T07:39:35.271Z,20
2017-02-07T07:40:35.272Z,20
2017-02-07T07:41:35.265Z,20
2017-02-07T07:42:35.272Z,20
2017-02-07T07:43:35.299Z,20
2017-02-07T07:44:35.292Z,20
2017-02-07T07:45:35.290Z,25
2017-02-07T07:46:35.276Z,25
2017-02-07T07:47:35.253Z,30
2017-02-07T07:48:35.279Z,30
2017-02-07T07:49:35.291Z,25
2017-02-07T07:50:35.296Z,25
2017-02-07T07:51:35.343Z,25
2017-02-07T07:52:35.295Z,25
2017-02-07T07:53:35.303Z,25
2017-02-07T07:54:35.305Z,25
2017-02-07T07:55:35.401Z,25
2017-02-07T07:56:35.355Z,25
2017-02-07T07:57:35.299Z,30
2017-02-07T07:58:35.279Z,30
2017-02-07T07:59:35.284Z,30
2017-02-07T08:00:35.297Z,35
2017-02-07T08:01:35.338Z,35
2017-02-07T08:02:35.324Z,35
2017-02-07T08:03:35.303Z,30
2017-02-07T08:04:35.296Z,30
2017-02-07T08:05:35.379Z,35
2017-02-07T08:06:35.296Z,35
2017-02-07T08:07:35.368Z,30
2017-02-07T08:08:35.309Z,30
2017-02-07T08:10:03.210Z,30
2017-02-07T08:10:38.077Z,30
2017-02-07T08:11:35.322Z,30
2017-02-07T08:12:35.358Z,30
2017-02-07T08:13:43.595Z,30
2017-02-07T08:14:44.532Z,30
2017-02-07T08:15:43.900Z,30
2017-02-07T08:16:43.705Z,35
2017-02-07T08:17:44.488Z,40
2017-02-07T08:18:42.596Z,45
2017-02-07T08:19:42.070Z,45
2017-02-07T08:20:40.996Z,40
2017-02-07T08:21:35.384Z,40
2017-02-07T08:22:35.309Z,40
2017-02-07T08:23:35.388Z,40
2017-02-07T08:24:35.326Z,40
2017-02-07T08:25:35.297Z,45
2017-02-07T08:26:35.404Z,45
2017-02-07T08:27:35.343Z,45
2017-02-07T08:28:35.345Z,45
2017-02-07T08:29:35.343Z,45
2017-02-07T08:30:35.377Z,40
2017-02-07T08:31:35.446Z,45
2017-02-07T08:32:35.358Z,40
2017-02-07T08:33:35.334Z,40
2017-02-07T08:34:35.328Z,40
2017-02-07T08:35:35.328Z,40
2017-02-07T08:36:35.327Z,40
2017-02-07T08:37:35.289Z,40
2017-02-07T08:38:35.375Z,40
2017-02-07T08:39:35.372Z,45
2017-02-07T08:40:35.341Z,45
2017-02-07T08:41:35.406Z,45
2017-02-07T08:42:35.336Z,50
2017-02-07T08:43:35.325Z,55
2017-02-07T08:44:35.318Z,50
2017-02-07T08:45:35.322Z,55
2017-02-07T08:46:35.391Z,60
2017-02-07T08:47:35.602Z,60
2017-02-07T08:48:35.392Z,65
2017-02-07T08:49:35.396Z,70
2017-02-07T08:50:35.354Z,70
2017-02-07T08:51:35.317Z,70
2017-02-07T08:52:35.365Z,75
2017-02-07T08:53:35.354Z,70
2017-02-07T08:54:35.322Z,65
2017-02-07T08:55:35.317Z,60
2017-02-07T08:56:35.323Z,65
2017-02-07T08:57:35.365Z,70
2017-02-07T08:58:35.338Z,70
2017-02-07T08:59:35.508Z,75
2017-02-07T09:00:35.363Z,75
2017-02-07T09:01:35.408Z,75
2017-02-07T09:02:35.354Z,70
2017-02-07T09:03:35.345Z,65
2017-02-07T09:04:35.517Z,65
2017-02-07T09:05:35.348Z,65
2017-02-07T09:06:35.366Z,65
2017-02-07T09:07:35.446Z,60
2017-02-07T09:08:35.386Z,60
2017-02-07T09:09:35.343Z,65
2017-02-07T09:10:35.415Z,65
2017-02-07T09:11:35.428Z,70
2017-02-07T09:12:35.361Z,70
2017-02-07T09:13:35.322Z,75
2017-02-07T09:14:35.358Z,70
2017-02-07T09:15:35.339Z,70
2017-02-07T09:16:35.373Z,70
2017-02-07T09:17:35.364Z,70
2017-02-07T09:18:35.358Z,70
2017-02-07T09:19:35.341Z,70
2017-02-07T09:20:35.360Z,65
2017-02-07T09:21:35.417Z,65
2017-02-07T09:22:35.463Z,65
2017-02-07T09:23:35.397Z,60
2017-02-07T09:24:35.398Z,65
2017-02-07T09:25:35.367Z,65
2017-02-07T09:26:35.402Z,65
2017-02-07T09:27:35.359Z,70
2017-02-07T09:28:35.379Z,75
2017-02-07T09:29:35.358Z,75
2017-02-07T09:30:35.370Z,80
2017-02-07T09:31:35.403Z,75
2017-02-07T09:32:35.350Z,70
2017-02-07T09:33:35.355Z,70
2017-02-07T09:34:35.595Z,65
2017-02-07T09:35:35.386Z,70
2017-02-07T09:36:35.371Z,75
2017-02-07T09:37:35.471Z,75
2017-02-07T09:38:35.380Z,75
2017-02-07T09:39:35.614Z,75
2017-02-07T09:40:35.396Z,75
2017-02-07T09:41:35.368Z,75
2017-02-07T09:42:35.656Z,75
2017-02-07T09:43:35.399Z,70
2017-02-07T09:44:35.401Z,70
2017-02-07T09:45:35.376Z,70
2017-02-07T09:46:35.390Z,70
2017-02-07T09:47:35.365Z,70
2017-02-07T09:48:35.352Z,70
2017-02-07T09:49:35.355Z,70
2017-02-07T09:50:35.666Z,70
2017-02-07T09:51:35.497Z,75
2017-02-07T09:52:35.395Z,85
2017-02-07T09:53:35.403Z,80
2017-02-07T09:54:35.529Z,85
2017-02-07T09:55:35.367Z,85
2017-02-07T09:56:35.582Z,90
2017-02-07T09:57:35.617Z,85
2017-02-07T09:58:35.377Z,85
2017-02-07T09:59:35.369Z,90
2017-02-07T10:00:35.386Z,90
2017-02-07T10:01:35.407Z,85
2017-02-07T10:02:35.428Z,80
2017-02-07T10:03:35.389Z,70
2017-02-07T10:04:35.393Z,70
2017-02-07T10:05:35.382Z,70
2017-02-07T10:06:35.414Z,65
2017-02-07T10:07:35.434Z,60
2017-02-07T10:08:35.436Z,55
2017-02-07T10:09:35.372Z,50
2017-02-07T10:10:35.416Z,45
2017-02-07T10:11:35.441Z,45
2017-02-07T10:12:35.412Z,45
2017-02-07T10:13:35.461Z,50
2017-02-07T10:14:35.537Z,50
2017-02-07T10:15:35.410Z,50
2017-02-07T10:16:35.402Z,45
2017-02-07T10:17:35.422Z,45
2017-02-07T10:18:35.469Z,45
2017-02-07T10:19:35.402Z,45
2017-02-07T10:20:35.416Z,45
2017-02-07T10:21:35.738Z,50
2017-02-07T10:22:35.446Z,55
2017-02-07T10:23:35.387Z,55
2017-02-07T10:24:35.407Z,55
2017-02-07T10:25:35.414Z,55
2017-02-07T10:26:35.430Z,55
2017-02-07T10:27:36.337Z,55
2017-02-07T10:28:35.404Z,55
2017-02-07T10:29:35.368Z,55
2017-02-07T10:30:35.522Z,60
2017-02-07T10:31:35.498Z,65
2017-02-07T10:32:35.447Z,70
2017-02-07T10:33:35.653Z,75
2017-02-07T10:34:35.471Z,80
2017-02-07T10:35:35.439Z,80
2017-02-07T10:36:35.436Z,80
2017-02-07T10:37:35.427Z,80
2017-02-07T10:38:35.677Z,75
2017-02-07T10:39:35.466Z,75
2017-02-07T10:40:35.450Z,70
2017-02-07T10:41:35.503Z,70
2017-02-07T10:42:35.492Z,65
2017-02-07T10:43:35.513Z,65
2017-02-07T10:44:35.708Z,65
2017-02-07T10:45:35.419Z,60
2017-02-07T10:46:35.638Z,60
2017-02-07T10:47:35.555Z,55
2017-02-07T10:48:35.409Z,55
2017-02-07T10:49:35.391Z,55
2017-02-07T10:50:35.396Z,55
2017-02-07T10:51:35.689Z,60
2017-02-07T10:52:35.493Z,55
2017-02-07T10:53:35.556Z,55
2017-02-07T10:54:35.571Z,55
2017-02-07T10:55:35.403Z,55
2017-02-07T10:56:35.631Z,55
2017-02-07T10:57:35.396Z,55
2017-02-07T10:58:35.492Z,60
2017-02-07T10:59:35.404Z,60
2017-02-07T11:00:35.420Z,60
2017-02-07T11:01:35.409Z,60
2017-02-07T11:02:35.433Z,60
2017-02-07T11:03:35.430Z,60
2017-02-07T11:04:35.490Z,60
2017-02-07T11:05:35.425Z,60
2017-02-07T11:06:35.429Z,55
2017-02-07T11:07:35.536Z,55
2017-02-07T11:08:35.594Z,55
2017-02-07T11:09:35.449Z,55
2017-02-07T11:10:35.444Z,55
2017-02-07T11:11:35.463Z,60
2017-02-07T11:12:35.393Z,60
2017-02-07T11:13:35.465Z,60
2017-02-07T11:14:35.430Z,60
2017-02-07T11:15:35.448Z,60
2017-02-07T11:16:35.452Z,60
2017-02-07T11:17:35.430Z,55
2017-02-07T11:18:35.423Z,60
2017-02-07T11:19:35.543Z,60
2017-02-07T11:20:35.468Z,55
2017-02-07T11:21:35.451Z,60
2017-02-07T11:22:35.453Z,65
2017-02-07T11:23:35.506Z,65
2017-02-07T11:24:35.564Z,70
2017-02-07T11:25:36.093Z,70
2017-02-07T11:26:35.497Z,75
2017-02-07T11:27:35.512Z,70
2017-02-07T11:28:35.578Z,70
2017-02-07T11:29:35.484Z,70
2017-02-07T11:30:35.451Z,70
2017-02-07T11:31:35.529Z,70
2017-02-07T11:32:35.469Z,75
2017-02-07T11:33:35.497Z,75
2017-02-07T11:34:35.432Z,70
2017-02-07T11:35:35.484Z,65
2017-02-07T11:36:35.453Z,60
2017-02-07T11:37:35.583Z,60
2017-02-07T11:38:35.423Z,55
2017-02-07T11:39:35.617Z,55
2017-02-07T11:40:35.491Z,50
2017-02-07T11:41:35.457Z,50
2017-02-07T11:42:35.483Z,50
2017-02-07T11:43:35.487Z,55
2017-02-07T11:44:35.568Z,55
2017-02-07T11:45:35.450Z,55
2017-02-07T11:46:35.450Z,55
2017-02-07T11:47:35.458Z,55
2017-02-07T11:48:35.479Z,55
2017-02-07T11:49:35.662Z,55
2017-02-07T11:50:35.523Z,55
2017-02-07T11:51:35.469Z,55
2017-02-07T11:52:35.466Z,60
2017-02-07T11:53:35.457Z,60
2017-02-07T11:54:35.490Z,60
2017-02-07T11:55:35.559Z,60
2017-02-07T11:56:35.494Z,60
2017-02-07T11:57:35.502Z,65
2017-02-07T11:58:35.503Z,65
2017-02-07T11:59:35.500Z,65
2017-02-07T12:00:35.444Z,65
2017-02-07T12:01:35.462Z,65
2017-02-07T12:02:35.514Z,65
2017-02-07T12:03:35.526Z,65
2017-02-07T12:04:35.482Z,65
2017-02-07T12:05:35.498Z,65
2017-02-07T12:06:35.462Z,60
2017-02-07T12:07:35.449Z,60
2017-02-07T12:08:35.516Z,60
2017-02-07T12:09:35.577Z,60
2017-02-07T12:10:35.466Z,55
2017-02-07T12:11:35.482Z,55
2017-02-07T12:12:35.530Z,50
2017-02-07T12:13:35.477Z,50
2017-02-07T12:14:35.452Z,50
2017-02-07T12:15:35.465Z,45
2017-02-07T12:16:35.474Z,45
2017-02-07T12:17:35.513Z,45
2017-02-07T12:18:35.497Z,50
2017-02-07T12:19:35.486Z,50
2017-02-07T12:20:35.472Z,50
2017-02-07T12:21:35.555Z,50
2017-02-07T12:22:35.462Z,50
2017-02-07T12:23:35.521Z,45
2017-02-07T12:24:35.490Z,45
2017-02-07T12:25:35.454Z,50
2017-02-07T12:26:35.507Z,50
2017-02-07T12:27:35.490Z,50
2017-02-07T12:28:35.498Z,50
2017-02-07T12:29:35.521Z,50
2017-02-07T12:30:35.515Z,55
2017-02-07T12:31:35.489Z,55
2017-02-07T12:32:35.478Z,55
2017-02-07T12:33:35.457Z,55
2017-02-07T12:34:35.484Z,55
2017-02-07T12:35:35.495Z,55
2017-02-07T12:36:35.475Z,50
2017-02-07T12:37:35.554Z,50
2017-02-07T12:38:35.488Z,45
2017-02-07T12:39:35.483Z,45
2017-02-07T12:40:35.466Z,45
2017-02-07T12:41:35.510Z,40
2017-02-07T12:42:35.473Z,40
2017-02-07T12:43:35.518Z,40
2017-02-07T12:44:35.514Z,40
2017-02-07T12:45:35.462Z,40
2017-02-07T12:46:35.511Z,40
2017-02-07T12:47:35.536Z,40
2017-02-07T12:48:35.502Z,40
2017-02-07T12:49:35.518Z,40
2017-02-07T12:50:35.539Z,40
2017-02-07T12:51:35.498Z,40
2017-02-07T12:52:35.505Z,40
2017-02-07T12:53:35.518Z,40
2017-02-07T12:54:35.513Z,45
2017-02-07T12:55:35.501Z,40
2017-02-07T12:56:35.473Z,40
2017-02-07T12:57:35.504Z,35
2017-02-07T12:58:35.498Z,40
2017-02-07T12:59:35.499Z,40
2017-02-07T13:00:35.525Z,40
2017-02-07T13:01:35.489Z,40
2017-02-07T13:02:35.498Z,40
2017-02-07T13:03:35.470Z,40
2017-02-07T13:04:35.514Z,40
2017-02-07T13:05:35.498Z,35
2017-02-07T13:06:35.552Z,35
2017-02-07T13:07:35.585Z,35
2017-02-07T13:08:35.488Z,35
2017-02-07T13:09:35.502Z,40
2017-02-07T13:10:35.522Z,40
2017-02-07T13:11:35.531Z,40
2017-02-07T13:12:35.562Z,35
2017-02-07T13:13:35.510Z,35
2017-02-07T13:14:35.507Z,35
2017-02-07T13:15:35.522Z,35
2017-02-07T13:16:35.554Z,35
2017-02-07T13:17:35.502Z,35
2017-02-07T13:18:35.517Z,40
2017-02-07T13:19:35.548Z,40
2017-02-07T13:20:35.505Z,40
2017-02-07T13:21:35.513Z,35
2017-02-07T13:22:35.516Z,35
2017-02-07T13:23:35.524Z,35
2017-02-07T13:24:35.507Z,35
2017-02-07T13:25:35.552Z,35
2017-02-07T13:26:35.514Z,35
2017-02-07T13:27:35.497Z,40
2017-02-07T13:28:35.514Z,40
2017-02-07T13:29:35.501Z,35
2017-02-07T13:30:35.557Z,40
2017-02-07T13:31:35.539Z,40
2017-02-07T13:32:35.518Z,40
2017-02-07T13:33:35.513Z,40
2017-02-07T13:34:35.517Z,45
2017-02-07T13:35:35.527Z,45
2017-02-07T13:36:35.499Z,45
2017-02-07T13:37:35.517Z,40
2017-02-07T13:38:45.373Z,50
2017-02-07T13:39:35.530Z,50
2017-02-07T13:40:35.523Z,50
2017-02-07T13:41:35.520Z,55
2017-02-07T13:42:35.558Z,55
2017-02-07T13:43:35.520Z,50
2017-02-07T13:44:35.540Z,40
2017-02-07T13:45:35.535Z,40
2017-02-07T13:46:35.524Z,45
2017-02-07T13:47:35.533Z,45
2017-02-07T13:48:35.558Z,50
2017-02-07T13:49:35.535Z,45
2017-02-07T13:50:35.536Z,45
2017-02-07T13:51:35.516Z,35
2017-02-07T13:52:35.556Z,45
2017-02-07T13:53:35.531Z,50
2017-02-07T13:54:35.533Z,55
2017-02-07T13:55:35.535Z,50
2017-02-07T13:56:35.547Z,45
2017-02-07T13:57:35.544Z,45
2017-02-07T13:58:35.516Z,50
2017-02-07T13:59:35.547Z,45
2017-02-07T14:00:35.538Z,50
2017-02-07T14:01:35.565Z,50
2017-02-07T14:02:35.557Z,45
2017-02-07T14:03:35.551Z,45
2017-02-07T14:04:35.556Z,40
2017-02-07T14:05:35.544Z,40
2017-02-07T14:06:35.557Z,45
2017-02-07T14:07:35.573Z,45
2017-02-07T14:08:35.537Z,50
2017-02-07T14:09:35.530Z,50
2017-02-07T14:10:35.572Z,50
2017-02-07T14:11:35.563Z,50
2017-02-07T14:12:35.570Z,45
2017-02-07T14:13:35.766Z,45
2017-02-07T14:14:35.582Z,45
2017-02-07T14:15:35.595Z,45
2017-02-07T14:16:35.569Z,50
2017-02-07T14:17:35.625Z,50
2017-02-07T14:18:35.564Z,50
2017-02-07T14:19:35.561Z,50
2017-02-07T14:20:35.537Z,50
2017-02-07T14:21:35.563Z,45
2017-02-07T14:22:35.546Z,45
2017-02-07T14:23:35.569Z,45
2017-02-07T14:24:35.584Z,45
2017-02-07T14:25:35.573Z,40
2017-02-07T14:26:35.581Z,35
2017-02-07T14:27:35.608Z,40
2017-02-07T14:28:35.560Z,40
2017-02-07T14:29:35.603Z,45
2017-02-07T14:30:35.560Z,45
2017-02-07T14:31:35.557Z,40